createdAt,value
2024-05-09T16:49:41.140Z,31.54
2024-05-09T16:50:45.404Z,31.54
2024-05-09T16:51:49.563Z,31.68
2024-05-09T16:52:53.792Z,30.76
2024-05-09T16:54:00.605Z,31.30
2024-05-09T16:55:05.537Z,31.45
2024-05-09T16:56:09.850Z,31.06
2024-05-09T16:57:14.059Z,31.20
2024-05-09T16:58:21.814Z,31.13
2024-05-09T16:59:28.316Z,31.57
2024-05-09T17:00:40.241Z,31.09
2024-05-09T17:01:40.145Z,31.44
2024-05-09T17:02:50.302Z,31.44
2024-05-09T17:03:54.970Z,31.51
2024-05-09T17:05:02.382Z,31.46
2024-05-09T17:06:07.011Z,31.48
2024-05-09T17:07:14.848Z,31.60
2024-05-09T17:08:20.999Z,31.90
2024-05-09T17:09:28.069Z,31.90
2024-05-09T17:10:34.382Z,32.00
2024-05-09T17:11:37.959Z,31.85
2024-05-09T17:12:48.889Z,32.26
2024-05-09T17:13:48.353Z,32.26
2024-05-09T17:14:52.914Z,32.41
2024-05-09T17:15:58.872Z,32.20
2024-05-09T17:17:03.273Z,32.25
2024-05-09T17:18:10.538Z,32.26
2024-05-09T17:19:14.841Z,32.84
2024-05-09T17:20:29.213Z,32.60
2024-05-09T17:21:24.866Z,32.55
2024-05-09T17:22:29.142Z,32.55
2024-05-09T17:23:35.070Z,32.67
2024-05-09T17:24:43.611Z,32.93
2024-05-09T17:25:48.091Z,32.85
2024-05-09T17:26:59.469Z,33.39
2024-05-09T17:28:06.057Z,33.01
2024-05-09T17:29:12.405Z,32.52
2024-05-09T17:30:28.291Z,32.39
2024-05-09T17:31:22.743Z,32.92
2024-05-09T17:32:27.161Z,32.57
2024-05-09T17:33:33.833Z,32.57
2024-05-09T17:34:38.406Z,32.05
2024-05-09T17:35:42.670Z,32.45
2024-05-09T17:36:46.886Z,32.45
2024-05-09T17:37:51.211Z,32.73
2024-05-09T17:38:55.459Z,32.27
2024-05-09T17:40:04.265Z,32.27
2024-05-09T17:41:08.479Z,32.76
2024-05-09T17:42:14.174Z,33.10
2024-05-09T17:43:20.190Z,33.06
2024-05-09T17:44:24.750Z,32.82
2024-05-09T17:45:40.855Z,33.49
2024-05-09T17:46:40.940Z,33.49
2024-05-09T17:47:47.062Z,33.74
2024-05-09T17:48:56.434Z,34.13
2024-05-09T17:51:35.723Z,34.44
2024-05-09T17:52:38.288Z,33.98
2024-05-09T17:53:44.678Z,34.09
2024-05-09T17:54:48.955Z,34.57
2024-05-09T17:55:53.152Z,34.31
2024-05-09T17:56:59.002Z,34.66
2024-05-09T17:58:05.319Z,34.98
2024-05-09T17:59:11.736Z,35.10
2024-05-09T18:00:38.777Z,35.05
2024-05-09T18:01:39.392Z,35.01
2024-05-09T18:02:46.320Z,35.11
2024-05-09T18:03:50.784Z,35.13
2024-05-09T18:04:55.193Z,35.13
2024-05-09T18:05:59.591Z,35.56
2024-05-09T18:07:04.198Z,35.56
2024-05-09T18:08:08.888Z,35.79
2024-05-09T18:09:15.778Z,35.55
2024-05-09T18:10:25.882Z,35.72
2024-05-09T18:11:28.371Z,35.72
2024-05-09T18:12:32.626Z,36.12
2024-05-09T18:13:37.018Z,36.00
2024-05-09T18:14:41.211Z,36.00
2024-05-09T18:15:45.606Z,36.45
2024-05-09T18:16:49.969Z,36.40
2024-05-09T18:17:54.315Z,36.19
2024-05-09T18:18:58.821Z,36.31
2024-05-09T18:20:08.969Z,36.59
2024-05-09T18:21:12.302Z,36.32
2024-05-09T18:22:16.563Z,36.27
2024-05-09T18:23:20.957Z,35.86
2024-05-09T18:24:25.013Z,36.41
2024-05-09T18:25:30.331Z,36.41
2024-05-09T18:26:34.651Z,36.07
2024-05-09T18:27:39.021Z,35.98
2024-05-09T18:28:43.387Z,36.05
2024-05-09T18:29:47.798Z,36.38
2024-05-09T18:30:53.504Z,36.39
2024-05-09T18:31:57.872Z,36.60
2024-05-09T18:33:02.474Z,36.13
2024-05-09T18:34:06.884Z,36.27
2024-05-09T18:35:12.268Z,36.02
2024-05-09T18:36:16.534Z,36.15
2024-05-09T18:37:20.871Z,36.15
2024-05-09T18:38:25.095Z,35.66
2024-05-09T18:39:29.423Z,35.66
2024-05-09T18:40:36.720Z,36.29
2024-05-09T18:41:41.184Z,36.52
2024-05-09T18:42:50.287Z,36.51
2024-05-09T18:43:54.536Z,36.78
2024-05-09T18:44:58.805Z,36.78
2024-05-09T18:46:04.121Z,37.04
2024-05-09T18:47:08.391Z,37.04
2024-05-09T18:48:13.815Z,36.89
2024-05-09T18:49:18.726Z,36.89
2024-05-09T18:50:32.035Z,37.22
2024-05-09T18:51:29.483Z,37.07
2024-05-09T18:52:33.695Z,37.70
2024-05-09T18:53:37.770Z,37.98
2024-05-09T18:54:42.002Z,37.59
2024-05-09T18:55:46.181Z,37.61
2024-05-09T18:56:52.968Z,37.80
2024-05-09T18:58:05.331Z,37.91
2024-05-09T18:59:18.474Z,38.30
2024-05-09T19:00:33.222Z,38.35
2024-05-09T19:01:30.324Z,38.24
2024-05-09T19:02:36.445Z,38.24
2024-05-09T19:03:41.012Z,38.27
2024-05-09T19:04:47.113Z,38.87
2024-05-09T19:05:51.431Z,38.97
2024-05-09T19:06:55.586Z,38.78
2024-05-09T19:07:59.884Z,39.54
2024-05-09T19:10:21.504Z,39.61
2024-05-09T19:11:15.117Z,40.08
2024-05-09T19:12:19.284Z,39.97
2024-05-09T19:13:27.051Z,39.77
2024-05-09T19:14:34.162Z,39.77
2024-05-09T19:15:41.050Z,40.40
2024-05-09T19:16:45.841Z,40.54
2024-05-09T19:17:51.655Z,40.29
2024-05-09T19:18:56.729Z,40.39
2024-05-09T19:20:01.421Z,40.39
2024-05-09T19:21:08.849Z,40.63
2024-05-09T19:22:14.597Z,41.14
2024-05-09T19:23:18.897Z,41.64
2024-05-09T19:24:25.202Z,41.03
2024-05-09T19:25:30.226Z,41.07
2024-05-09T19:26:36.062Z,41.08
2024-05-09T19:27:43.228Z,41.53
2024-05-09T19:28:47.407Z,41.42
2024-05-09T19:29:57.201Z,41.58
2024-05-09T19:31:00.992Z,41.51
2024-05-09T19:32:07.080Z,41.41
2024-05-09T19:33:13.419Z,41.69
2024-05-09T19:34:17.890Z,41.49
2024-05-09T19:35:22.177Z,41.26
2024-05-09T19:36:27.874Z,41.57
2024-05-09T19:37:33.497Z,42.02
2024-05-09T19:38:39.229Z,41.62
2024-05-09T19:39:43.822Z,41.98
2024-05-09T19:40:49.891Z,42.11
2024-05-09T19:41:54.269Z,41.99
2024-05-09T19:42:58.729Z,41.76
2024-05-09T19:44:02.992Z,41.99
2024-05-09T19:45:07.437Z,42.18
2024-05-09T19:46:12.231Z,42.16
2024-05-09T19:47:16.534Z,42.52
2024-05-09T19:48:21.819Z,42.52
2024-05-09T19:49:26.282Z,42.50
2024-05-09T19:50:37.493Z,42.39
2024-05-09T19:51:36.253Z,42.46
2024-05-09T19:52:40.320Z,42.07
2024-05-09T19:53:44.363Z,42.07
2024-05-09T19:54:48.471Z,42.83
2024-05-09T19:55:52.513Z,42.70
2024-05-09T19:56:57.107Z,42.72
2024-05-09T19:58:07.959Z,42.98
2024-05-09T19:59:14.743Z,42.94
2024-05-09T20:01:21.920Z,42.48
2024-05-09T20:02:26.192Z,42.64
2024-05-09T20:03:30.437Z,42.71
2024-05-09T20:04:34.843Z,43.11
2024-05-09T20:05:39.739Z,43.11
2024-05-09T20:06:44.138Z,42.91
2024-05-09T20:07:48.352Z,42.30
2024-05-09T20:08:54.110Z,42.30
2024-05-09T20:09:58.241Z,42.68
2024-05-09T20:11:02.296Z,42.24
2024-05-09T20:12:06.474Z,42.24
2024-05-09T20:13:10.532Z,42.72
2024-05-09T20:14:14.715Z,42.72
2024-05-09T20:15:18.920Z,42.86
2024-05-09T20:16:24.710Z,42.86
2024-05-09T20:17:30.550Z,42.71
2024-05-09T20:18:34.846Z,42.83
2024-05-09T20:19:41.202Z,42.96
2024-05-09T20:20:45.565Z,42.96
2024-05-09T20:21:49.974Z,43.14
2024-05-09T20:22:54.087Z,42.97
2024-05-09T20:23:58.206Z,42.97
2024-05-09T20:25:02.316Z,43.55
2024-05-09T20:26:07.544Z,42.60
2024-05-09T20:27:11.808Z,42.44
2024-05-09T20:28:17.524Z,43.09
2024-05-09T20:29:21.878Z,42.66
2024-05-09T20:30:31.817Z,43.12
2024-05-09T20:31:31.716Z,43.27
2024-05-09T20:32:38.955Z,43.23
2024-05-09T20:33:46.246Z,43.47
2024-05-09T20:34:56.563Z,43.47
2024-05-09T20:36:02.740Z,43.36
2024-05-09T20:37:07.070Z,43.22
2024-05-09T20:38:11.158Z,43.22
2024-05-09T20:39:15.260Z,43.71
2024-05-09T20:40:26.093Z,43.56
2024-05-09T20:41:24.980Z,43.21
2024-05-09T20:42:34.582Z,43.31
2024-05-09T20:43:44.906Z,43.48
2024-05-09T20:44:50.635Z,43.26
2024-05-09T20:45:54.768Z,42.82
2024-05-09T20:46:59.120Z,43.61
2024-05-09T20:48:03.333Z,43.31
2024-05-09T20:49:07.802Z,43.32
2024-05-09T20:50:23.026Z,43.30
2024-05-09T20:51:17.663Z,43.30
2024-05-09T20:52:24.592Z,43.31
2024-05-09T20:53:27.870Z,43.41
2024-05-09T20:54:32.062Z,43.30
2024-05-09T20:55:36.256Z,42.86
2024-05-09T20:56:40.406Z,43.17
2024-05-09T20:57:44.674Z,43.45
2024-05-09T20:58:49.121Z,43.66
2024-05-09T20:59:53.081Z,43.42
2024-05-09T21:00:57.253Z,43.50
2024-05-09T21:02:01.443Z,43.69
2024-05-09T21:03:06.626Z,43.57
2024-05-09T21:04:11.389Z,43.37
2024-05-09T21:05:15.659Z,43.87
2024-05-09T21:06:19.969Z,43.87
2024-05-09T21:07:24.030Z,43.29
2024-05-09T21:08:28.025Z,44.07
2024-05-09T21:09:33.736Z,44.07
2024-05-09T21:10:39.404Z,43.97
2024-05-09T21:11:43.513Z,43.67
2024-05-09T21:12:47.543Z,44.20
2024-05-09T21:13:56.279Z,44.20
2024-05-09T21:15:00.434Z,44.31
2024-05-09T21:16:05.462Z,44.47
2024-05-09T21:17:09.739Z,44.31
2024-05-09T21:18:14.009Z,44.31
2024-05-09T21:19:19.716Z,44.55
2024-05-09T21:20:30.559Z,45.13
2024-05-09T21:21:39.234Z,44.71
2024-05-09T21:22:45.367Z,44.71
2024-05-09T21:23:49.598Z,44.57
2024-05-09T21:24:58.171Z,45.00
2024-05-09T21:26:05.568Z,45.02
2024-05-09T21:27:11.298Z,45.23
2024-05-09T21:28:15.474Z,45.38
2024-05-09T21:29:19.643Z,45.38
2024-05-09T21:30:32.628Z,45.43
2024-05-09T21:31:32.612Z,45.43
2024-05-09T21:32:36.809Z,46.99
2024-05-09T21:33:42.776Z,45.50
2024-05-09T21:34:47.103Z,45.61
2024-05-09T21:35:51.201Z,46.13
2024-05-09T21:36:55.524Z,45.74
2024-05-09T21:37:59.582Z,45.66
2024-05-09T21:39:05.257Z,46.58
2024-05-09T21:40:13.849Z,46.45
2024-05-09T21:41:15.695Z,46.94
2024-05-09T21:42:19.664Z,46.94
2024-05-09T21:43:25.913Z,47.38
2024-05-09T21:44:32.504Z,46.96
2024-05-09T21:45:37.644Z,46.99
2024-05-09T21:46:42.056Z,47.25
2024-05-09T21:47:46.382Z,47.58
2024-05-09T21:48:52.220Z,48.85
2024-05-09T21:49:56.408Z,47.23
2024-05-09T21:51:02.083Z,47.94
2024-05-09T21:52:06.400Z,47.76
2024-05-09T21:53:11.908Z,49.86
2024-05-09T21:54:16.483Z,47.34
2024-05-09T21:55:22.344Z,47.77
2024-05-09T21:56:26.951Z,47.17
2024-05-09T21:57:30.945Z,46.75
2024-05-09T21:58:38.064Z,47.75
2024-05-09T21:59:42.094Z,52.41
2024-05-09T22:00:47.899Z,50.84
2024-05-09T22:01:52.163Z,52.66
2024-05-09T22:02:57.976Z,50.04
2024-05-09T22:04:02.694Z,49.35
2024-05-09T22:05:07.489Z,48.56
2024-05-09T22:06:11.601Z,48.26
2024-05-09T22:07:15.649Z,49.96
2024-05-09T22:08:19.796Z,49.21
2024-05-09T22:09:23.897Z,49.44
2024-05-09T22:10:34.058Z,48.32
2024-05-09T22:11:37.009Z,48.70
2024-05-09T22:12:42.945Z,48.41
2024-05-09T22:13:47.004Z,47.76
2024-05-09T22:14:50.975Z,47.76
2024-05-09T22:15:55.093Z,47.54
2024-05-09T22:16:59.291Z,47.31
2024-05-09T22:18:03.756Z,48.28
2024-05-09T22:19:08.233Z,47.09
2024-05-09T22:20:22.100Z,49.32
2024-05-09T22:21:20.561Z,49.32
2024-05-09T22:22:25.504Z,48.32
2024-05-09T22:23:29.494Z,49.06
2024-05-09T22:24:33.553Z,49.15
2024-05-09T22:25:37.965Z,49.15
2024-05-09T22:26:42.099Z,48.98
2024-05-09T22:27:46.415Z,49.28
2024-05-09T22:28:50.454Z,48.34
2024-05-09T22:29:54.560Z,48.47
2024-05-09T22:30:58.676Z,48.03
2024-05-09T22:32:04.185Z,48.09
2024-05-09T22:33:12.872Z,49.76
2024-05-09T22:34:29.179Z,49.30
2024-05-09T22:35:33.294Z,49.34
2024-05-09T22:36:37.551Z,49.34
2024-05-09T22:37:41.843Z,49.05
2024-05-09T22:38:45.840Z,49.30
2024-05-09T22:39:57.985Z,50.72
2024-05-09T22:41:04.954Z,50.53
2024-05-09T22:42:09.073Z,52.26
2024-05-09T22:43:16.037Z,53.19
2024-05-09T22:44:20.174Z,51.05
2024-05-09T22:45:24.206Z,51.05
2024-05-09T22:46:29.951Z,54.09
2024-05-09T22:47:36.817Z,54.24
2024-05-09T22:48:41.188Z,54.29
2024-05-09T22:49:45.594Z,54.39
2024-05-09T22:50:49.666Z,54.39
2024-05-09T22:51:53.689Z,54.70
2024-05-09T22:52:57.687Z,54.66
2024-05-09T22:54:13.877Z,54.91
2024-05-09T22:55:19.602Z,55.07
2024-05-09T22:56:30.000Z,54.96
2024-05-09T22:57:33.926Z,55.56
2024-05-09T22:58:38.100Z,56.43
2024-05-09T22:59:42.110Z,56.33
2024-05-09T23:00:46.331Z,57.65
2024-05-09T23:01:50.659Z,58.63
2024-05-09T23:02:54.870Z,58.18
2024-05-09T23:03:59.061Z,57.41
2024-05-09T23:05:03.452Z,57.56
2024-05-09T23:06:07.820Z,57.56
2024-05-09T23:07:11.992Z,58.06
2024-05-09T23:08:16.058Z,57.58
2024-05-09T23:09:20.042Z,59.14
2024-05-09T23:10:31.928Z,58.24
2024-05-09T23:11:29.663Z,58.79
2024-05-09T23:12:33.752Z,58.56
2024-05-09T23:13:37.920Z,58.99
2024-05-09T23:14:41.946Z,58.60
2024-05-09T23:15:46.044Z,59.52
2024-05-09T23:16:50.174Z,59.52
2024-05-09T23:17:54.589Z,58.31
2024-05-09T23:18:58.808Z,60.40
2024-05-09T23:20:03.984Z,60.30
2024-05-09T23:21:08.611Z,58.87
2024-05-09T23:22:12.679Z,62.18
2024-05-09T23:23:16.694Z,61.88
2024-05-09T23:24:20.755Z,62.07
2024-05-09T23:25:26.458Z,59.12
2024-05-09T23:26:30.420Z,59.12
2024-05-09T23:27:34.562Z,63.77
2024-05-09T23:28:38.725Z,63.68
2024-05-09T23:29:42.717Z,64.78
2024-05-09T23:30:46.789Z,66.21
2024-05-09T23:31:50.721Z,66.88
2024-05-09T23:32:54.886Z,66.88
2024-05-09T23:33:59.145Z,67.39
2024-05-09T23:35:03.530Z,67.78
2024-05-09T23:36:07.838Z,67.26
2024-05-09T23:37:12.061Z,69.34
2024-05-09T23:38:16.089Z,68.70
2024-05-09T23:39:20.200Z,68.70
2024-05-09T23:40:34.706Z,70.67
2024-05-09T23:41:30.036Z,70.29
2024-05-09T23:42:34.094Z,71.49
2024-05-09T23:43:38.264Z,73.39
2024-05-09T23:44:42.368Z,68.68
2024-05-09T23:45:46.523Z,68.85
2024-05-09T23:46:50.578Z,69.91
2024-05-09T23:47:54.725Z,69.12
2024-05-09T23:48:59.054Z,74.36
2024-05-09T23:50:05.137Z,68.11
2024-05-09T23:51:08.929Z,66.07
2024-05-09T23:52:13.080Z,70.76
2024-05-09T23:53:17.148Z,72.87
2024-05-09T23:54:21.164Z,66.03
2024-05-09T23:55:27.974Z,71.95
2024-05-09T23:56:32.806Z,77.48
2024-05-09T23:57:36.896Z,77.48
2024-05-09T23:58:40.965Z,69.96
2024-05-09T23:59:45.002Z,66.35
